sensor_id;sensor_type;location;lat;lon;timestamp;P1;durP1;ratioP1;P2;durP2;ratioP2
12784;SDS011;6456;42.680;23.260;2023-08-24T00:02:12;10.02;;;9.05;;
12784;SDS011;6456;42.680;23.260;2023-08-24T00:04:39;9.80;;;8.90;;
12784;SDS011;6456;42.680;23.260;2023-08-24T00:07:05;9.77;;;8.98;;
12784;SDS011;6456;42.680;23.260;2023-08-24T00:09:34;9.60;;;8.70;;
12784;SDS011;6456;42.680;23.260;2023-08-24T00:12:02;9.63;;;8.73;;
12784;SDS011;6456;42.680;23.260;2023-08-24T00:14:29;9.20;;;8.40;;
12784;SDS011;6456;42.680;23.260;2023-08-24T00:16:57;10.05;;;9.23;;
12784;SDS011;6456;42.680;23.260;2023-08-24T00:19:24;10.25;;;9.15;;
12784;SDS011;6456;42.680;23.260;2023-08-24T00:21:53;9.75;;;8.95;;
12784;SDS011;6456;42.680;23.260;2023-08-24T00:24:20;10.45;;;9.32;;
12784;SDS011;6456;42.680;23.260;2023-08-24T00:26:49;10.10;;;9.10;;
12784;SDS011;6456;42.680;23.260;2023-08-24T00:29:16;11.10;;;9.93;;
12784;SDS011;6456;42.680;23.260;2023-08-24T00:31:43;10.90;;;9.80;;
12784;SDS011;6456;42.680;23.260;2023-08-24T00:34:10;11.77;;;9.38;;
12784;SDS011;6456;42.680;23.260;2023-08-24T00:36:40;10.13;;;9.18;;
12784;SDS011;6456;42.680;23.260;2023-08-24T00:39:07;10.40;;;9.50;;
12784;SDS011;6456;42.680;23.260;2023-08-24T00:41:37;9.95;;;9.13;;
12784;SDS011;6456;42.680;23.260;2023-08-24T00:44:07;10.35;;;9.38;;
12784;SDS011;6456;42.680;23.260;2023-08-24T00:46:35;11.40;;;9.75;;
12784;SDS011;6456;42.680;23.260;2023-08-24T00:49:01;11.25;;;10.05;;
12784;SDS011;6456;42.680;23.260;2023-08-24T00:51:29;10.75;;;9.85;;
12784;SDS011;6456;42.680;23.260;2023-08-24T00:53:56;10.90;;;9.88;;
12784;SDS011;6456;42.680;23.260;2023-08-24T00:56:23;11.80;;;10.43;;
12784;SDS011;6456;42.680;23.260;2023-08-24T00:58:51;10.77;;;9.77;;
12784;SDS011;6456;42.680;23.260;2023-08-24T01:01:21;11.48;;;10.27;;
12784;SDS011;6456;42.680;23.260;2023-08-24T01:03:49;11.75;;;10.75;;
12784;SDS011;6456;42.680;23.260;2023-08-24T01:06:16;10.35;;;9.45;;
12784;SDS011;6456;42.680;23.260;2023-08-24T01:08:43;10.98;;;9.77;;
12784;SDS011;6456;42.680;23.260;2023-08-24T01:11:11;10.48;;;9.57;;
12784;SDS011;6456;42.680;23.260;2023-08-24T01:13:46;10.88;;;9.88;;
12784;SDS011;6456;42.680;23.260;2023-08-24T01:16:18;13.25;;;10.07;;
12784;SDS011;6456;42.680;23.260;2023-08-24T01:18:53;10.70;;;9.70;;
12784;SDS011;6456;42.680;23.260;2023-08-24T01:21:21;11.45;;;10.43;;
12784;SDS011;6456;42.680;23.260;2023-08-24T01:23:53;13.50;;;11.95;;
12784;SDS011;6456;42.680;23.260;2023-08-24T01:26:28;14.65;;;13.13;;
12784;SDS011;6456;42.680;23.260;2023-08-24T01:28:55;11.57;;;10.45;;
12784;SDS011;6456;42.680;23.260;2023-08-24T01:31:23;11.50;;;10.50;;
12784;SDS011;6456;42.680;23.260;2023-08-24T01:33:51;14.48;;;12.98;;
12784;SDS011;6456;42.680;23.260;2023-08-24T01:36:18;13.93;;;12.70;;
12784;SDS011;6456;42.680;23.260;2023-08-24T01:38:46;13.18;;;11.77;;
12784;SDS011;6456;42.680;23.260;2023-08-24T01:41:19;13.25;;;11.77;;
12784;SDS011;6456;42.680;23.260;2023-08-24T01:43:53;12.85;;;11.63;;
12784;SDS011;6456;42.680;23.260;2023-08-24T01:46:22;12.45;;;11.38;;
12784;SDS011;6456;42.680;23.260;2023-08-24T01:48:51;12.45;;;11.20;;
12784;SDS011;6456;42.680;23.260;2023-08-24T01:51:19;11.52;;;10.52;;
12784;SDS011;6456;42.680;23.260;2023-08-24T01:53:47;11.57;;;10.48;;
12784;SDS011;6456;42.680;23.260;2023-08-24T01:56:15;11.82;;;10.60;;
12784;SDS011;6456;42.680;23.260;2023-08-24T01:58:42;12.00;;;10.98;;
12784;SDS011;6456;42.680;23.260;2023-08-24T02:01:11;13.00;;;11.80;;
12784;SDS011;6456;42.680;23.260;2023-08-24T02:03:38;12.70;;;11.40;;
12784;SDS011;6456;42.680;23.260;2023-08-24T02:06:06;13.43;;;12.15;;
12784;SDS011;6456;42.680;23.260;2023-08-24T02:08:33;19.48;;;17.30;;
12784;SDS011;6456;42.680;23.260;2023-08-24T02:11:00;21.88;;;19.52;;
12784;SDS011;6456;42.680;23.260;2023-08-24T02:13:27;22.25;;;18.73;;
12784;SDS011;6456;42.680;23.260;2023-08-24T02:16:00;19.97;;;17.87;;
12784;SDS011;6456;42.680;23.260;2023-08-24T02:18:30;22.15;;;19.85;;
12784;SDS011;6456;42.680;23.260;2023-08-24T02:20:57;21.23;;;17.08;;
12784;SDS011;6456;42.680;23.260;2023-08-24T02:23:24;22.02;;;19.58;;
12784;SDS011;6456;42.680;23.260;2023-08-24T02:25:51;23.05;;;20.05;;
12784;SDS011;6456;42.680;23.260;2023-08-24T02:28:18;19.00;;;17.00;;
12784;SDS011;6456;42.680;23.260;2023-08-24T02:30:45;17.10;;;14.60;;
12784;SDS011;6456;42.680;23.260;2023-08-24T02:33:12;14.52;;;13.13;;
12784;SDS011;6456;42.680;23.260;2023-08-24T02:35:40;14.90;;;13.45;;
12784;SDS011;6456;42.680;23.260;2023-08-24T02:38:08;17.48;;;15.68;;
12784;SDS011;6456;42.680;23.260;2023-08-24T02:40:35;19.80;;;16.10;;
12784;SDS011;6456;42.680;23.260;2023-08-24T02:43:02;18.65;;;16.90;;
12784;SDS011;6456;42.680;23.260;2023-08-24T02:45:29;17.55;;;15.75;;
12784;SDS011;6456;42.680;23.260;2023-08-24T02:47:56;18.73;;;16.73;;
12784;SDS011;6456;42.680;23.260;2023-08-24T02:50:23;18.95;;;17.05;;
12784;SDS011;6456;42.680;23.260;2023-08-24T02:52:52;21.67;;;19.02;;
12784;SDS011;6456;42.680;23.260;2023-08-24T02:55:19;21.10;;;17.98;;
12784;SDS011;6456;42.680;23.260;2023-08-24T02:57:46;21.40;;;18.80;;
12784;SDS011;6456;42.680;23.260;2023-08-24T03:00:12;23.00;;;18.98;;
12784;SDS011;6456;42.680;23.260;2023-08-24T03:02:39;23.58;;;21.15;;
12784;SDS011;6456;42.680;23.260;2023-08-24T03:05:07;20.48;;;18.35;;
12784;SDS011;6456;42.680;23.260;2023-08-24T03:07:34;21.65;;;19.38;;
12784;SDS011;6456;42.680;23.260;2023-08-24T03:10:03;24.70;;;20.58;;
12784;SDS011;6456;42.680;23.260;2023-08-24T03:12:30;18.40;;;15.93;;
12784;SDS011;6456;42.680;23.260;2023-08-24T03:14:57;18.30;;;16.37;;
12784;SDS011;6456;42.680;23.260;2023-08-24T03:17:24;18.37;;;16.47;;
12784;SDS011;6456;42.680;23.260;2023-08-24T03:19:51;18.83;;;16.40;;
12784;SDS011;6456;42.680;23.260;2023-08-24T03:22:18;17.43;;;15.60;;
12784;SDS011;6456;42.680;23.260;2023-08-24T03:24:45;20.87;;;18.00;;
12784;SDS011;6456;42.680;23.260;2023-08-24T03:27:13;20.83;;;18.70;;
12784;SDS011;6456;42.680;23.260;2023-08-24T03:29:40;19.60;;;16.87;;
12784;SDS011;6456;42.680;23.260;2023-08-24T03:32:07;16.53;;;14.77;;
12784;SDS011;6456;42.680;23.260;2023-08-24T03:34:34;16.73;;;15.20;;
12784;SDS011;6456;42.680;23.260;2023-08-24T03:37:01;15.60;;;13.88;;
12784;SDS011;6456;42.680;23.260;2023-08-24T03:39:28;15.10;;;13.57;;
12784;SDS011;6456;42.680;23.260;2023-08-24T03:41:55;15.77;;;14.17;;
12784;SDS011;6456;42.680;23.260;2023-08-24T03:44:25;17.70;;;15.67;;
12784;SDS011;6456;42.680;23.260;2023-08-24T03:46:52;25.65;;;16.92;;
12784;SDS011;6456;42.680;23.260;2023-08-24T03:49:19;25.37;;;17.07;;
12784;SDS011;6456;42.680;23.260;2023-08-24T03:51:46;26.30;;;17.17;;
12784;SDS011;6456;42.680;23.260;2023-08-24T03:54:13;20.07;;;17.57;;
12784;SDS011;6456;42.680;23.260;2023-08-24T03:56:40;18.03;;;16.13;;
12784;SDS011;6456;42.680;23.260;2023-08-24T03:59:10;17.33;;;15.63;;
12784;SDS011;6456;42.680;23.260;2023-08-24T04:01:38;24.37;;;17.37;;
12784;SDS011;6456;42.680;23.260;2023-08-24T04:04:05;24.40;;;16.50;;
12784;SDS011;6456;42.680;23.260;2023-08-24T04:06:32;18.20;;;15.68;;
12784;SDS011;6456;42.680;23.260;2023-08-24T04:08:59;22.20;;;16.20;;
12784;SDS011;6456;42.680;23.260;2023-08-24T04:11:26;22.63;;;16.98;;
12784;SDS011;6456;42.680;23.260;2023-08-24T04:13:53;19.77;;;16.30;;
12784;SDS011;6456;42.680;23.260;2023-08-24T04:16:20;22.83;;;16.33;;
12784;SDS011;6456;42.680;23.260;2023-08-24T04:18:49;18.67;;;15.73;;
12784;SDS011;6456;42.680;23.260;2023-08-24T04:21:16;20.23;;;16.38;;
12784;SDS011;6456;42.680;23.260;2023-08-24T04:23:43;22.05;;;17.35;;
12784;SDS011;6456;42.680;23.260;2023-08-24T04:26:10;25.05;;;17.25;;
12784;SDS011;6456;42.680;23.260;2023-08-24T04:28:37;22.35;;;16.67;;
12784;SDS011;6456;42.680;23.260;2023-08-24T04:31:04;17.80;;;15.70;;
12784;SDS011;6456;42.680;23.260;2023-08-24T04:33:31;20.83;;;16.10;;
12784;SDS011;6456;42.680;23.260;2023-08-24T04:35:59;22.15;;;16.67;;
12784;SDS011;6456;42.680;23.260;2023-08-24T04:38:28;24.35;;;16.15;;
12784;SDS011;6456;42.680;23.260;2023-08-24T04:40:55;18.80;;;16.77;;
12784;SDS011;6456;42.680;23.260;2023-08-24T04:43:23;18.27;;;16.38;;
12784;SDS011;6456;42.680;23.260;2023-08-24T04:45:51;22.70;;;19.00;;
12784;SDS011;6456;42.680;23.260;2023-08-24T04:48:18;20.73;;;17.13;;
12784;SDS011;6456;42.680;23.260;2023-08-24T04:50:46;21.13;;;18.48;;
12784;SDS011;6456;42.680;23.260;2023-08-24T04:53:23;20.05;;;17.48;;
12784;SDS011;6456;42.680;23.260;2023-08-24T04:55:59;20.35;;;16.60;;
12784;SDS011;6456;42.680;23.260;2023-08-24T04:58:26;22.52;;;17.00;;
12784;SDS011;6456;42.680;23.260;2023-08-24T05:00:54;28.73;;;17.50;;
12784;SDS011;6456;42.680;23.260;2023-08-24T05:03:21;23.23;;;17.67;;
12784;SDS011;6456;42.680;23.260;2023-08-24T05:05:48;22.83;;;16.90;;
12784;SDS011;6456;42.680;23.260;2023-08-24T05:08:15;18.83;;;15.38;;
12784;SDS011;6456;42.680;23.260;2023-08-24T05:10:44;27.95;;;15.30;;
12784;SDS011;6456;42.680;23.260;2023-08-24T05:13:11;21.85;;;14.15;;
12784;SDS011;6456;42.680;23.260;2023-08-24T05:15:38;18.58;;;15.95;;
12784;SDS011;6456;42.680;23.260;2023-08-24T05:18:05;17.95;;;15.45;;
12784;SDS011;6456;42.680;23.260;2023-08-24T05:20:34;20.25;;;16.88;;
12784;SDS011;6456;42.680;23.260;2023-08-24T05:23:01;18.33;;;16.08;;
12784;SDS011;6456;42.680;23.260;2023-08-24T05:25:28;23.17;;;17.80;;
12784;SDS011;6456;42.680;23.260;2023-08-24T05:27:56;23.23;;;19.50;;
12784;SDS011;6456;42.680;23.260;2023-08-24T05:30:23;24.88;;;20.35;;
12784;SDS011;6456;42.680;23.260;2023-08-24T05:32:54;43.78;;;29.08;;
12784;SDS011;6456;42.680;23.260;2023-08-24T05:35:21;47.42;;;29.40;;
12784;SDS011;6456;42.680;23.260;2023-08-24T05:37:48;41.83;;;28.48;;
12784;SDS011;6456;42.680;23.260;2023-08-24T05:40:16;44.22;;;26.63;;
12784;SDS011;6456;42.680;23.260;2023-08-24T05:42:43;30.65;;;19.90;;
12784;SDS011;6456;42.680;23.260;2023-08-24T05:45:13;20.40;;;16.55;;
12784;SDS011;6456;42.680;23.260;2023-08-24T05:47:40;24.48;;;22.00;;
12784;SDS011;6456;42.680;23.260;2023-08-24T05:50:07;27.52;;;23.60;;
12784;SDS011;6456;42.680;23.260;2023-08-24T05:52:36;22.63;;;19.48;;
12784;SDS011;6456;42.680;23.260;2023-08-24T05:55:04;25.20;;;20.75;;
12784;SDS011;6456;42.680;23.260;2023-08-24T05:57:31;20.73;;;18.65;;
12784;SDS011;6456;42.680;23.260;2023-08-24T05:59:58;22.50;;;19.95;;
12784;SDS011;6456;42.680;23.260;2023-08-24T06:02:26;23.35;;;18.65;;
12784;SDS011;6456;42.680;23.260;2023-08-24T06:04:53;20.73;;;17.73;;
12784;SDS011;6456;42.680;23.260;2023-08-24T06:07:20;19.33;;;17.23;;
12784;SDS011;6456;42.680;23.260;2023-08-24T06:09:50;21.13;;;17.35;;
12784;SDS011;6456;42.680;23.260;2023-08-24T06:12:18;17.05;;;15.35;;
12784;SDS011;6456;42.680;23.260;2023-08-24T06:14:45;17.42;;;14.75;;
12784;SDS011;6456;42.680;23.260;2023-08-24T06:17:12;20.33;;;14.63;;
12784;SDS011;6456;42.680;23.260;2023-08-24T06:19:40;17.77;;;14.20;;
12784;SDS011;6456;42.680;23.260;2023-08-24T06:22:07;15.00;;;13.07;;
12784;SDS011;6456;42.680;23.260;2023-08-24T06:24:34;14.13;;;12.82;;
12784;SDS011;6456;42.680;23.260;2023-08-24T06:27:07;18.92;;;13.90;;
12784;SDS011;6456;42.680;23.260;2023-08-24T06:29:37;15.25;;;13.68;;
12784;SDS011;6456;42.680;23.260;2023-08-24T06:32:12;14.80;;;13.30;;
12784;SDS011;6456;42.680;23.260;2023-08-24T06:34:48;15.15;;;13.45;;
12784;SDS011;6456;42.680;23.260;2023-08-24T06:37:15;14.18;;;12.80;;
12784;SDS011;6456;42.680;23.260;2023-08-24T06:39:42;15.27;;;12.82;;
12784;SDS011;6456;42.680;23.260;2023-08-24T06:42:09;15.38;;;13.57;;
12784;SDS011;6456;42.680;23.260;2023-08-24T06:44:36;15.60;;;13.68;;
12784;SDS011;6456;42.680;23.260;2023-08-24T06:47:03;19.90;;;14.57;;
12784;SDS011;6456;42.680;23.260;2023-08-24T06:49:30;14.43;;;13.10;;
12784;SDS011;6456;42.680;23.260;2023-08-24T06:51:58;14.77;;;13.18;;
12784;SDS011;6456;42.680;23.260;2023-08-24T06:54:30;14.05;;;12.63;;
12784;SDS011;6456;42.680;23.260;2023-08-24T06:56:57;14.45;;;13.10;;
12784;SDS011;6456;42.680;23.260;2023-08-24T06:59:24;14.40;;;13.00;;
12784;SDS011;6456;42.680;23.260;2023-08-24T07:01:51;13.75;;;12.55;;
12784;SDS011;6456;42.680;23.260;2023-08-24T07:04:18;14.35;;;12.85;;
12784;SDS011;6456;42.680;23.260;2023-08-24T07:06:45;14.48;;;12.98;;
12784;SDS011;6456;42.680;23.260;2023-08-24T07:09:15;12.77;;;11.57;;
12784;SDS011;6456;42.680;23.260;2023-08-24T07:11:43;13.20;;;11.88;;
12784;SDS011;6456;42.680;23.260;2023-08-24T07:14:10;12.50;;;11.30;;
12784;SDS011;6456;42.680;23.260;2023-08-24T07:16:37;17.75;;;12.25;;
12784;SDS011;6456;42.680;23.260;2023-08-24T07:19:04;14.43;;;12.18;;
12784;SDS011;6456;42.680;23.260;2023-08-24T07:21:31;13.13;;;11.75;;
12784;SDS011;6456;42.680;23.260;2023-08-24T07:23:59;12.48;;;11.38;;
12784;SDS011;6456;42.680;23.260;2023-08-24T07:26:28;12.00;;;10.90;;
12784;SDS011;6456;42.680;23.260;2023-08-24T07:28:55;11.15;;;10.05;;
12784;SDS011;6456;42.680;23.260;2023-08-24T07:31:22;14.88;;;11.90;;
12784;SDS011;6456;42.680;23.260;2023-08-24T07:33:49;12.85;;;11.65;;
12784;SDS011;6456;42.680;23.260;2023-08-24T07:36:16;12.30;;;11.13;;
12784;SDS011;6456;42.680;23.260;2023-08-24T07:38:44;12.98;;;11.88;;
12784;SDS011;6456;42.680;23.260;2023-08-24T07:41:11;12.38;;;11.32;;
12784;SDS011;6456;42.680;23.260;2023-08-24T07:43:40;12.15;;;11.05;;
12784;SDS011;6456;42.680;23.260;2023-08-24T07:46:07;12.40;;;11.23;;
12784;SDS011;6456;42.680;23.260;2023-08-24T07:48:34;12.00;;;11.07;;
12784;SDS011;6456;42.680;23.260;2023-08-24T07:51:01;12.05;;;10.85;;
12784;SDS011;6456;42.680;23.260;2023-08-24T07:53:28;12.30;;;11.10;;
12784;SDS011;6456;42.680;23.260;2023-08-24T07:55:55;11.60;;;10.38;;
12784;SDS011;6456;42.680;23.260;2023-08-24T07:58:23;11.30;;;10.35;;
12784;SDS011;6456;42.680;23.260;2023-08-24T08:00:51;13.70;;;12.50;;
12784;SDS011;6456;42.680;23.260;2023-08-24T08:03:19;13.43;;;10.70;;
12784;SDS011;6456;42.680;23.260;2023-08-24T08:05:47;13.15;;;11.85;;
12784;SDS011;6456;42.680;23.260;2023-08-24T08:08:14;13.35;;;10.88;;
12784;SDS011;6456;42.680;23.260;2023-08-24T08:10:41;11.88;;;10.73;;
12784;SDS011;6456;42.680;23.260;2023-08-24T08:13:09;11.80;;;10.48;;
12784;SDS011;6456;42.680;23.260;2023-08-24T08:15:36;11.70;;;10.50;;
12784;SDS011;6456;42.680;23.260;2023-08-24T08:18:06;11.57;;;10.60;;
12784;SDS011;6456;42.680;23.260;2023-08-24T08:20:33;11.25;;;10.18;;
12784;SDS011;6456;42.680;23.260;2023-08-24T08:22:59;15.30;;;10.43;;
12784;SDS011;6456;42.680;23.260;2023-08-24T08:25:29;11.50;;;10.40;;
12784;SDS011;6456;42.680;23.260;2023-08-24T08:27:59;12.52;;;11.32;;
12784;SDS011;6456;42.680;23.260;2023-08-24T08:30:26;12.00;;;10.77;;
12784;SDS011;6456;42.680;23.260;2023-08-24T08:32:53;10.68;;;9.77;;
12784;SDS011;6456;42.680;23.260;2023-08-24T08:35:23;12.00;;;10.80;;
12784;SDS011;6456;42.680;23.260;2023-08-24T08:37:50;11.63;;;10.43;;
12784;SDS011;6456;42.680;23.260;2023-08-24T08:40:18;10.98;;;9.98;;
12784;SDS011;6456;42.680;23.260;2023-08-24T08:42:49;11.38;;;10.25;;
12784;SDS011;6456;42.680;23.260;2023-08-24T08:45:16;10.88;;;9.82;;
12784;SDS011;6456;42.680;23.260;2023-08-24T08:47:50;14.15;;;12.93;;
12784;SDS011;6456;42.680;23.260;2023-08-24T08:50:18;11.40;;;10.20;;
12784;SDS011;6456;42.680;23.260;2023-08-24T08:52:48;12.25;;;11.02;;
12784;SDS011;6456;42.680;23.260;2023-08-24T08:55:14;11.70;;;10.52;;
12784;SDS011;6456;42.680;23.260;2023-08-24T08:57:41;11.70;;;10.40;;
12784;SDS011;6456;42.680;23.260;2023-08-24T09:00:09;14.07;;;12.68;;
12784;SDS011;6456;42.680;23.260;2023-08-24T09:02:39;18.15;;;12.23;;
12784;SDS011;6456;42.680;23.260;2023-08-24T09:05:10;14.25;;;12.00;;
12784;SDS011;6456;42.680;23.260;2023-08-24T09:07:38;13.45;;;11.93;;
12784;SDS011;6456;42.680;23.260;2023-08-24T09:10:08;12.43;;;11.38;;
12784;SDS011;6456;42.680;23.260;2023-08-24T09:12:35;13.07;;;11.88;;
12784;SDS011;6456;42.680;23.260;2023-08-24T09:15:02;12.30;;;11.20;;
12784;SDS011;6456;42.680;23.260;2023-08-24T09:17:33;12.60;;;11.30;;
12784;SDS011;6456;42.680;23.260;2023-08-24T09:20:02;13.40;;;12.00;;
12784;SDS011;6456;42.680;23.260;2023-08-24T09:22:34;12.82;;;11.73;;
12784;SDS011;6456;42.680;23.260;2023-08-24T09:25:03;13.10;;;11.45;;
12784;SDS011;6456;42.680;23.260;2023-08-24T09:27:33;12.82;;;11.73;;
12784;SDS011;6456;42.680;23.260;2023-08-24T09:30:01;12.57;;;11.50;;
12784;SDS011;6456;42.680;23.260;2023-08-24T09:32:30;12.63;;;11.57;;
12784;SDS011;6456;42.680;23.260;2023-08-24T09:35:01;14.52;;;12.85;;
12784;SDS011;6456;42.680;23.260;2023-08-24T09:37:31;13.70;;;12.50;;
12784;SDS011;6456;42.680;23.260;2023-08-24T09:40:02;14.15;;;12.98;;
12784;SDS011;6456;42.680;23.260;2023-08-24T09:42:38;13.73;;;12.63;;
12784;SDS011;6456;42.680;23.260;2023-08-24T09:45:11;14.45;;;13.25;;
12784;SDS011;6456;42.680;23.260;2023-08-24T09:47:39;12.85;;;11.82;;
12784;SDS011;6456;42.680;23.260;2023-08-24T09:50:18;13.88;;;12.82;;
12784;SDS011;6456;42.680;23.260;2023-08-24T09:52:53;15.57;;;12.50;;
12784;SDS011;6456;42.680;23.260;2023-08-24T09:55:26;13.38;;;12.13;;
12784;SDS011;6456;42.680;23.260;2023-08-24T09:58:00;13.75;;;12.65;;
12784;SDS011;6456;42.680;23.260;2023-08-24T10:00:35;14.15;;;12.70;;
12784;SDS011;6456;42.680;23.260;2023-08-24T10:03:03;13.38;;;12.32;;
12784;SDS011;6456;42.680;23.260;2023-08-24T10:05:38;13.27;;;12.18;;
12784;SDS011;6456;42.680;23.260;2023-08-24T10:08:09;13.18;;;12.10;;
12784;SDS011;6456;42.680;23.260;2023-08-24T10:10:41;12.75;;;11.65;;
12784;SDS011;6456;42.680;23.260;2023-08-24T10:13:14;13.40;;;12.32;;
12784;SDS011;6456;42.680;23.260;2023-08-24T10:15:49;13.38;;;12.20;;
12784;SDS011;6456;42.680;23.260;2023-08-24T10:18:24;15.02;;;11.93;;
12784;SDS011;6456;42.680;23.260;2023-08-24T10:20:52;13.00;;;11.95;;
12784;SDS011;6456;42.680;23.260;2023-08-24T10:23:22;13.07;;;12.00;;
12784;SDS011;6456;42.680;23.260;2023-08-24T10:25:51;15.25;;;12.25;;
12784;SDS011;6456;42.680;23.260;2023-08-24T10:28:25;12.82;;;11.70;;
12784;SDS011;6456;42.680;23.260;2023-08-24T10:30:57;10.98;;;10.07;;
12784;SDS011;6456;42.680;23.260;2023-08-24T10:33:28;11.65;;;10.65;;
12784;SDS011;6456;42.680;23.260;2023-08-24T10:36:04;12.25;;;11.07;;
12784;SDS011;6456;42.680;23.260;2023-08-24T10:38:35;11.80;;;10.68;;
12784;SDS011;6456;42.680;23.260;2023-08-24T10:41:07;11.55;;;10.68;;
12784;SDS011;6456;42.680;23.260;2023-08-24T10:43:36;11.30;;;10.40;;
12784;SDS011;6456;42.680;23.260;2023-08-24T10:46:13;11.07;;;10.07;;
12784;SDS011;6456;42.680;23.260;2023-08-24T10:48:59;11.27;;;10.27;;
12784;SDS011;6456;42.680;23.260;2023-08-24T10:51:27;10.75;;;9.80;;
12784;SDS011;6456;42.680;23.260;2023-08-24T10:53:55;10.23;;;9.35;;
12784;SDS011;6456;42.680;23.260;2023-08-24T10:56:37;10.27;;;9.30;;
12784;SDS011;6456;42.680;23.260;2023-08-24T10:59:12;11.45;;;8.93;;
12784;SDS011;6456;42.680;23.260;2023-08-24T11:01:54;10.48;;;9.55;;
12784;SDS011;6456;42.680;23.260;2023-08-24T11:04:23;13.60;;;12.27;;
12784;SDS011;6456;42.680;23.260;2023-08-24T11:06:53;12.52;;;11.30;;
12784;SDS011;6456;42.680;23.260;2023-08-24T11:09:25;14.50;;;12.02;;
12784;SDS011;6456;42.680;23.260;2023-08-24T11:11:55;12.40;;;11.18;;
12784;SDS011;6456;42.680;23.260;2023-08-24T11:14:28;10.95;;;9.57;;
12784;SDS011;6456;42.680;23.260;2023-08-24T11:16:56;11.00;;;9.20;;
12784;SDS011;6456;42.680;23.260;2023-08-24T11:19:25;9.52;;;8.70;;
12784;SDS011;6456;42.680;23.260;2023-08-24T11:21:58;8.75;;;7.35;;
12784;SDS011;6456;42.680;23.260;2023-08-24T11:24:26;8.32;;;7.57;;
12784;SDS011;6456;42.680;23.260;2023-08-24T11:27:02;7.82;;;7.13;;
12784;SDS011;6456;42.680;23.260;2023-08-24T11:29:33;11.45;;;7.38;;
12784;SDS011;6456;42.680;23.260;2023-08-24T11:32:01;7.82;;;7.13;;
12784;SDS011;6456;42.680;23.260;2023-08-24T11:34:29;7.80;;;7.10;;
12784;SDS011;6456;42.680;23.260;2023-08-24T11:36:56;8.32;;;7.32;;
12784;SDS011;6456;42.680;23.260;2023-08-24T11:39:23;7.95;;;7.28;;
12784;SDS011;6456;42.680;23.260;2023-08-24T11:41:57;7.78;;;6.97;;
12784;SDS011;6456;42.680;23.260;2023-08-24T11:44:28;8.77;;;7.85;;
12784;SDS011;6456;42.680;23.260;2023-08-24T11:46:58;7.45;;;6.82;;
12784;SDS011;6456;42.680;23.260;2023-08-24T11:49:27;8.23;;;7.35;;
12784;SDS011;6456;42.680;23.260;2023-08-24T11:51:55;8.85;;;8.05;;
12784;SDS011;6456;42.680;23.260;2023-08-24T11:54:28;8.68;;;7.32;;
12784;SDS011;6456;42.680;23.260;2023-08-24T11:57:05;9.35;;;7.85;;
12784;SDS011;6456;42.680;23.260;2023-08-24T11:59:38;8.02;;;7.22;;
12784;SDS011;6456;42.680;23.260;2023-08-24T12:02:07;7.55;;;6.90;;
12784;SDS011;6456;42.680;23.260;2023-08-24T12:04:39;7.70;;;6.97;;
12784;SDS011;6456;42.680;23.260;2023-08-24T12:07:08;7.88;;;7.18;;
12784;SDS011;6456;42.680;23.260;2023-08-24T12:09:38;9.13;;;7.30;;
12784;SDS011;6456;42.680;23.260;2023-08-24T12:12:05;8.60;;;7.82;;
12784;SDS011;6456;42.680;23.260;2023-08-24T12:14:40;8.82;;;8.02;;
12784;SDS011;6456;42.680;23.260;2023-08-24T12:17:13;9.18;;;8.35;;
12784;SDS011;6456;42.680;23.260;2023-08-24T12:19:41;9.70;;;8.65;;
12784;SDS011;6456;42.680;23.260;2023-08-24T12:22:12;9.57;;;8.65;;
12784;SDS011;6456;42.680;23.260;2023-08-24T12:24:43;9.05;;;8.15;;
12784;SDS011;6456;42.680;23.260;2023-08-24T12:27:17;8.65;;;7.70;;
12784;SDS011;6456;42.680;23.260;2023-08-24T12:29:45;9.82;;;8.02;;
12784;SDS011;6456;42.680;23.260;2023-08-24T12:32:13;9.13;;;8.23;;
12784;SDS011;6456;42.680;23.260;2023-08-24T12:34:45;8.88;;;8.13;;
12784;SDS011;6456;42.680;23.260;2023-08-24T12:37:12;9.38;;;8.38;;
12784;SDS011;6456;42.680;23.260;2023-08-24T12:39:39;10.18;;;8.45;;
12784;SDS011;6456;42.680;23.260;2023-08-24T12:42:06;9.02;;;8.15;;
12784;SDS011;6456;42.680;23.260;2023-08-24T12:44:33;8.75;;;7.93;;
12784;SDS011;6456;42.680;23.260;2023-08-24T12:47:02;8.60;;;7.75;;
12784;SDS011;6456;42.680;23.260;2023-08-24T12:49:30;8.43;;;7.82;;
12784;SDS011;6456;42.680;23.260;2023-08-24T12:51:59;9.05;;;8.05;;
12784;SDS011;6456;42.680;23.260;2023-08-24T12:54:27;8.95;;;8.23;;
12784;SDS011;6456;42.680;23.260;2023-08-24T12:56:54;8.98;;;8.10;;
12784;SDS011;6456;42.680;23.260;2023-08-24T12:59:20;9.07;;;8.18;;
12784;SDS011;6456;42.680;23.260;2023-08-24T13:01:49;9.00;;;8.10;;
12784;SDS011;6456;42.680;23.260;2023-08-24T13:04:16;9.82;;;8.77;;
12784;SDS011;6456;42.680;23.260;2023-08-24T13:06:45;9.20;;;8.30;;
12784;SDS011;6456;42.680;23.260;2023-08-24T13:09:14;9.80;;;8.80;;
12784;SDS011;6456;42.680;23.260;2023-08-24T13:11:43;8.68;;;7.93;;
12784;SDS011;6456;42.680;23.260;2023-08-24T13:14:10;11.07;;;10.07;;
12784;SDS011;6456;42.680;23.260;2023-08-24T13:16:37;12.18;;;10.55;;
12784;SDS011;6456;42.680;23.260;2023-08-24T13:19:06;11.90;;;10.68;;
12784;SDS011;6456;42.680;23.260;2023-08-24T13:21:33;11.95;;;10.85;;
12784;SDS011;6456;42.680;23.260;2023-08-24T13:24:01;11.88;;;10.30;;
12784;SDS011;6456;42.680;23.260;2023-08-24T13:26:35;10.52;;;9.63;;
12784;SDS011;6456;42.680;23.260;2023-08-24T13:29:02;10.93;;;9.90;;
12784;SDS011;6456;42.680;23.260;2023-08-24T13:31:32;11.57;;;10.57;;
12784;SDS011;6456;42.680;23.260;2023-08-24T13:34:00;10.65;;;9.20;;
12784;SDS011;6456;42.680;23.260;2023-08-24T13:36:32;9.93;;;9.05;;
12784;SDS011;6456;42.680;23.260;2023-08-24T13:38:59;15.18;;;10.18;;
12784;SDS011;6456;42.680;23.260;2023-08-24T13:41:28;10.95;;;9.85;;
12784;SDS011;6456;42.680;23.260;2023-08-24T13:43:59;12.18;;;9.40;;
12784;SDS011;6456;42.680;23.260;2023-08-24T13:46:26;11.38;;;10.27;;
12784;SDS011;6456;42.680;23.260;2023-08-24T13:48:53;11.98;;;9.70;;
12784;SDS011;6456;42.680;23.260;2023-08-24T13:51:20;11.07;;;9.98;;
12784;SDS011;6456;42.680;23.260;2023-08-24T13:53:47;11.05;;;9.52;;
12784;SDS011;6456;42.680;23.260;2023-08-24T13:56:14;10.68;;;9.60;;
12784;SDS011;6456;42.680;23.260;2023-08-24T13:58:42;11.00;;;9.98;;
12784;SDS011;6456;42.680;23.260;2023-08-24T14:01:09;10.55;;;9.65;;
12784;SDS011;6456;42.680;23.260;2023-08-24T14:03:40;10.25;;;9.20;;
12784;SDS011;6456;42.680;23.260;2023-08-24T14:06:08;11.40;;;9.32;;
12784;SDS011;6456;42.680;23.260;2023-08-24T14:08:35;12.13;;;9.80;;
12784;SDS011;6456;42.680;23.260;2023-08-24T14:11:02;13.98;;;10.15;;
12784;SDS011;6456;42.680;23.260;2023-08-24T14:13:29;11.70;;;9.82;;
12784;SDS011;6456;42.680;23.260;2023-08-24T14:15:57;11.88;;;9.80;;
12784;SDS011;6456;42.680;23.260;2023-08-24T14:18:24;10.90;;;9.90;;
12784;SDS011;6456;42.680;23.260;2023-08-24T14:20:52;11.82;;;9.75;;
12784;SDS011;6456;42.680;23.260;2023-08-24T14:23:19;11.10;;;10.00;;
12784;SDS011;6456;42.680;23.260;2023-08-24T14:25:46;10.80;;;9.70;;
12784;SDS011;6456;42.680;23.260;2023-08-24T14:28:18;11.15;;;10.02;;
12784;SDS011;6456;42.680;23.260;2023-08-24T14:30:48;12.55;;;10.88;;
12784;SDS011;6456;42.680;23.260;2023-08-24T14:33:16;11.43;;;9.57;;
12784;SDS011;6456;42.680;23.260;2023-08-24T14:35:50;14.63;;;9.02;;
12784;SDS011;6456;42.680;23.260;2023-08-24T14:38:18;9.98;;;8.60;;